sensor_id;sensor_type;location;lat;lon;timestamp;temperature;humidity
44117;DHT22;29781;49.480;8.512;2023-01-30T00:01:20;1.10;99.90
44117;DHT22;29781;49.480;8.512;2023-01-30T00:03:46;1.10;99.90
44117;DHT22;29781;49.480;8.512;2023-01-30T00:06:12;1.20;99.90
44117;DHT22;29781;49.480;8.512;2023-01-30T00:08:37;1.20;99.90
44117;DHT22;29781;49.480;8.512;2023-01-30T00:11:04;1.30;99.90
44117;DHT22;29781;49.480;8.512;2023-01-30T00:13:29;1.20;99.90
44117;DHT22;29781;49.480;8.512;2023-01-30T00:15:55;1.20;99.90
44117;DHT22;29781;49.480;8.512;2023-01-30T00:18:20;1.30;99.90
44117;DHT22;29781;49.480;8.512;2023-01-30T00:20:46;1.30;99.90
44117;DHT22;29781;49.480;8.512;2023-01-30T00:23:11;1.20;99.90
44117;DHT22;29781;49.480;8.512;2023-01-30T00:25:37;1.20;99.90
44117;DHT22;29781;49.480;8.512;2023-01-30T00:28:02;1.10;99.90
44117;DHT22;29781;49.480;8.512;2023-01-30T00:30:28;1.10;99.90
44117;DHT22;29781;49.480;8.512;2023-01-30T00:32:55;1.10;99.90
44117;DHT22;29781;49.480;8.512;2023-01-30T00:35:20;1.10;99.90
44117;DHT22;29781;49.480;8.512;2023-01-30T00:37:46;1.20;99.90
44117;DHT22;29781;49.480;8.512;2023-01-30T00:40:12;1.20;99.90
44117;DHT22;29781;49.480;8.512;2023-01-30T00:42:37;1.20;99.90
44117;DHT22;29781;49.480;8.512;2023-01-30T00:45:22;1.20;99.90
44117;DHT22;29781;49.480;8.512;2023-01-30T00:48:06;1.10;99.90
44117;DHT22;29781;49.480;8.512;2023-01-30T00:50:32;1.20;99.90
44117;DHT22;29781;49.480;8.512;2023-01-30T00:53:10;1.10;99.90
44117;DHT22;29781;49.480;8.512;2023-01-30T00:55:36;1.20;99.90
44117;DHT22;29781;49.480;8.512;2023-01-30T00:58:01;1.20;99.90
44117;DHT22;29781;49.480;8.512;2023-01-30T01:00:27;1.20;99.90
44117;DHT22;29781;49.480;8.512;2023-01-30T01:02:52;1.20;99.90
44117;DHT22;29781;49.480;8.512;2023-01-30T01:05:18;1.20;99.90
44117;DHT22;29781;49.480;8.512;2023-01-30T01:07:43;1.20;99.90
44117;DHT22;29781;49.480;8.512;2023-01-30T01:10:09;1.10;99.90
44117;DHT22;29781;49.480;8.512;2023-01-30T01:12:43;2.00;99.90
44117;DHT22;29781;49.480;8.512;2023-01-30T01:15:10;1.00;99.90
44117;DHT22;29781;49.480;8.512;2023-01-30T01:17:36;0.90;99.90
44117;DHT22;29781;49.480;8.512;2023-01-30T01:20:02;1.00;99.90
44117;DHT22;29781;49.480;8.512;2023-01-30T01:22:28;1.00;99.90
44117;DHT22;29781;49.480;8.512;2023-01-30T01:24:53;1.00;99.90
44117;DHT22;29781;49.480;8.512;2023-01-30T01:27:19;1.00;99.90
44117;DHT22;29781;49.480;8.512;2023-01-30T01:29:44;1.00;99.90
44117;DHT22;29781;49.480;8.512;2023-01-30T01:32:10;1.10;99.90
44117;DHT22;29781;49.480;8.512;2023-01-30T01:34:35;1.10;99.90
44117;DHT22;29781;49.480;8.512;2023-01-30T01:37:01;1.00;99.90
44117;DHT22;29781;49.480;8.512;2023-01-30T01:39:26;1.10;99.90
44117;DHT22;29781;49.480;8.512;2023-01-30T01:42:15;1.10;99.90
44117;DHT22;29781;49.480;8.512;2023-01-30T01:47:50;1.10;99.90
44117;DHT22;29781;49.480;8.512;2023-01-30T01:50:24;0.90;99.90
44117;DHT22;29781;49.480;8.512;2023-01-30T01:52:51;0.90;99.90
44117;DHT22;29781;49.480;8.512;2023-01-30T01:55:17;1.00;99.90
44117;DHT22;29781;49.480;8.512;2023-01-30T01:57:45;0.90;99.90
44117;DHT22;29781;49.480;8.512;2023-01-30T02:00:14;1.00;99.90
44117;DHT22;29781;49.480;8.512;2023-01-30T02:02:45;0.90;99.90
44117;DHT22;29781;49.480;8.512;2023-01-30T02:05:12;1.00;99.90
44117;DHT22;29781;49.480;8.512;2023-01-30T02:07:58;1.10;99.90
44117;DHT22;29781;49.480;8.512;2023-01-30T02:10:31;1.10;99.90
44117;DHT22;29781;49.480;8.512;2023-01-30T02:12:58;1.10;99.90
44117;DHT22;29781;49.480;8.512;2023-01-30T02:15:24;1.20;99.90
44117;DHT22;29781;49.480;8.512;2023-01-30T02:17:49;1.20;99.90
44117;DHT22;29781;49.480;8.512;2023-01-30T02:20:25;1.20;99.90
44117;DHT22;29781;49.480;8.512;2023-01-30T02:31:17;1.10;99.90
44117;DHT22;29781;49.480;8.512;2023-01-30T02:36:28;1.00;99.90
44117;DHT22;29781;49.480;8.512;2023-01-30T02:46:39;1.10;99.90
44117;DHT22;29781;49.480;8.512;2023-01-30T02:49:13;1.20;99.90
44117;DHT22;29781;49.480;8.512;2023-01-30T02:51:40;1.20;99.90
44117;DHT22;29781;49.480;8.512;2023-01-30T02:54:08;1.20;99.90
44117;DHT22;29781;49.480;8.512;2023-01-30T02:56:48;1.20;99.90
44117;DHT22;29781;49.480;8.512;2023-01-30T02:59:15;1.20;99.90
44117;DHT22;29781;49.480;8.512;2023-01-30T03:02:27;1.20;99.90
44117;DHT22;29781;49.480;8.512;2023-01-30T03:04:47;1.20;99.90
44117;DHT22;29781;49.480;8.512;2023-01-30T03:07:30;1.10;99.90
44117;DHT22;29781;49.480;8.512;2023-01-30T03:10:42;0.90;99.90
44117;DHT22;29781;49.480;8.512;2023-01-30T03:12:58;1.00;99.90
44117;DHT22;29781;49.480;8.512;2023-01-30T03:15:42;1.00;99.90
44117;DHT22;29781;49.480;8.512;2023-01-30T03:18:09;1.00;99.90
44117;DHT22;29781;49.480;8.512;2023-01-30T03:20:35;1.10;99.90
44117;DHT22;29781;49.480;8.512;2023-01-30T03:23:01;0.90;99.90
44117;DHT22;29781;49.480;8.512;2023-01-30T03:25:27;1.00;99.90
44117;DHT22;29781;49.480;8.512;2023-01-30T03:27:53;0.90;99.90
44117;DHT22;29781;49.480;8.512;2023-01-30T03:30:19;1.00;99.90
44117;DHT22;29781;49.480;8.512;2023-01-30T03:32:45;1.00;99.90
44117;DHT22;29781;49.480;8.512;2023-01-30T03:35:10;1.00;99.90
44117;DHT22;29781;49.480;8.512;2023-01-30T03:37:36;1.00;99.90
44117;DHT22;29781;49.480;8.512;2023-01-30T03:40:02;1.00;99.90
44117;DHT22;29781;49.480;8.512;2023-01-30T03:42:27;1.00;99.90
44117;DHT22;29781;49.480;8.512;2023-01-30T03:44:53;0.90;99.90
44117;DHT22;29781;49.480;8.512;2023-01-30T03:47:19;0.80;99.90
44117;DHT22;29781;49.480;8.512;2023-01-30T03:49:44;0.80;99.90
44117;DHT22;29781;49.480;8.512;2023-01-30T03:52:10;0.90;99.90
44117;DHT22;29781;49.480;8.512;2023-01-30T03:54:35;0.90;99.90
44117;DHT22;29781;49.480;8.512;2023-01-30T03:57:01;0.80;99.90
44117;DHT22;29781;49.480;8.512;2023-01-30T03:59:26;0.80;99.90
44117;DHT22;29781;49.480;8.512;2023-01-30T04:01:52;0.90;99.90
44117;DHT22;29781;49.480;8.512;2023-01-30T04:04:17;0.90;99.90
44117;DHT22;29781;49.480;8.512;2023-01-30T04:06:43;0.90;99.90
44117;DHT22;29781;49.480;8.512;2023-01-30T04:09:08;0.90;99.90
44117;DHT22;29781;49.480;8.512;2023-01-30T04:11:34;1.00;99.90
44117;DHT22;29781;49.480;8.512;2023-01-30T04:13:59;1.00;99.90
44117;DHT22;29781;49.480;8.512;2023-01-30T04:16:25;0.90;99.90
44117;DHT22;29781;49.480;8.512;2023-01-30T04:18:51;0.90;99.90
44117;DHT22;29781;49.480;8.512;2023-01-30T04:21:16;0.80;99.90
44117;DHT22;29781;49.480;8.512;2023-01-30T04:23:42;0.90;99.90
44117;DHT22;29781;49.480;8.512;2023-01-30T04:26:08;1.00;99.90
44117;DHT22;29781;49.480;8.512;2023-01-30T04:28:34;1.00;99.90
44117;DHT22;29781;49.480;8.512;2023-01-30T04:31:00;1.00;99.90
44117;DHT22;29781;49.480;8.512;2023-01-30T04:33:25;1.10;99.90
44117;DHT22;29781;49.480;8.512;2023-01-30T04:35:52;1.10;99.90
44117;DHT22;29781;49.480;8.512;2023-01-30T04:38:17;1.10;99.90
44117;DHT22;29781;49.480;8.512;2023-01-30T04:40:46;1.10;99.90
44117;DHT22;29781;49.480;8.512;2023-01-30T04:43:12;1.00;99.90
44117;DHT22;29781;49.480;8.512;2023-01-30T04:45:41;1.00;99.90
44117;DHT22;29781;49.480;8.512;2023-01-30T04:48:06;1.00;99.90
44117;DHT22;29781;49.480;8.512;2023-01-30T04:50:32;1.00;99.90
44117;DHT22;29781;49.480;8.512;2023-01-30T04:52:57;1.00;99.90
44117;DHT22;29781;49.480;8.512;2023-01-30T04:55:23;2.80;99.90
44117;DHT22;29781;49.480;8.512;2023-01-30T04:57:48;1.00;99.90
44117;DHT22;29781;49.480;8.512;2023-01-30T05:00:14;1.00;99.90
44117;DHT22;29781;49.480;8.512;2023-01-30T05:02:39;1.00;99.90
44117;DHT22;29781;49.480;8.512;2023-01-30T05:05:05;1.20;99.90
44117;DHT22;29781;49.480;8.512;2023-01-30T05:07:30;1.10;99.90
44117;DHT22;29781;49.480;8.512;2023-01-30T05:09:56;1.10;99.90
44117;DHT22;29781;49.480;8.512;2023-01-30T05:12:21;1.10;99.90
44117;DHT22;29781;49.480;8.512;2023-01-30T05:14:47;1.10;99.90
44117;DHT22;29781;49.480;8.512;2023-01-30T05:17:12;1.20;99.90
44117;DHT22;29781;49.480;8.512;2023-01-30T05:19:38;1.20;99.90
44117;DHT22;29781;49.480;8.512;2023-01-30T05:22:03;1.20;99.90
44117;DHT22;29781;49.480;8.512;2023-01-30T05:24:29;1.20;99.90
44117;DHT22;29781;49.480;8.512;2023-01-30T05:26:54;1.20;99.90
44117;DHT22;29781;49.480;8.512;2023-01-30T05:29:20;1.10;99.90
44117;DHT22;29781;49.480;8.512;2023-01-30T05:31:45;1.20;99.90
44117;DHT22;29781;49.480;8.512;2023-01-30T05:34:11;1.20;99.90
44117;DHT22;29781;49.480;8.512;2023-01-30T05:36:36;1.20;99.90
44117;DHT22;29781;49.480;8.512;2023-01-30T05:39:02;1.20;99.90
44117;DHT22;29781;49.480;8.512;2023-01-30T05:41:27;1.20;99.90
44117;DHT22;29781;49.480;8.512;2023-01-30T05:43:53;1.20;99.90
44117;DHT22;29781;49.480;8.512;2023-01-30T05:46:18;1.20;99.90
44117;DHT22;29781;49.480;8.512;2023-01-30T05:48:44;1.30;99.90
44117;DHT22;29781;49.480;8.512;2023-01-30T05:51:14;1.40;99.90
44117;DHT22;29781;49.480;8.512;2023-01-30T05:53:40;1.40;99.90
44117;DHT22;29781;49.480;8.512;2023-01-30T05:56:05;1.40;99.90
44117;DHT22;29781;49.480;8.512;2023-01-30T05:58:31;1.20;99.90
44117;DHT22;29781;49.480;8.512;2023-01-30T06:01:00;1.20;99.90
44117;DHT22;29781;49.480;8.512;2023-01-30T06:03:26;1.20;99.90
44117;DHT22;29781;49.480;8.512;2023-01-30T06:05:52;1.20;99.90
44117;DHT22;29781;49.480;8.512;2023-01-30T06:08:17;1.30;99.90
44117;DHT22;29781;49.480;8.512;2023-01-30T06:10:43;1.30;99.90
44117;DHT22;29781;49.480;8.512;2023-01-30T06:13:08;1.30;99.90
44117;DHT22;29781;49.480;8.512;2023-01-30T06:15:35;1.30;99.90
44117;DHT22;29781;49.480;8.512;2023-01-30T06:18:00;1.40;99.90
44117;DHT22;29781;49.480;8.512;2023-01-30T06:20:26;1.40;99.90
44117;DHT22;29781;49.480;8.512;2023-01-30T06:22:51;1.40;99.90
44117;DHT22;29781;49.480;8.512;2023-01-30T06:25:17;1.30;99.90
44117;DHT22;29781;49.480;8.512;2023-01-30T06:27:44;1.30;99.90
44117;DHT22;29781;49.480;8.512;2023-01-30T06:30:10;1.30;99.90
44117;DHT22;29781;49.480;8.512;2023-01-30T06:32:35;1.40;99.90
44117;DHT22;29781;49.480;8.512;2023-01-30T06:35:01;1.40;99.90
44117;DHT22;29781;49.480;8.512;2023-01-30T06:37:26;1.40;99.90
44117;DHT22;29781;49.480;8.512;2023-01-30T06:39:52;1.40;99.90
44117;DHT22;29781;49.480;8.512;2023-01-30T06:42:17;1.40;99.90
44117;DHT22;29781;49.480;8.512;2023-01-30T06:44:43;1.50;99.90
44117;DHT22;29781;49.480;8.512;2023-01-30T06:47:08;1.50;99.90
44117;DHT22;29781;49.480;8.512;2023-01-30T06:49:34;1.60;99.90
44117;DHT22;29781;49.480;8.512;2023-01-30T06:51:59;1.60;99.90
44117;DHT22;29781;49.480;8.512;2023-01-30T06:54:25;1.60;99.90
44117;DHT22;29781;49.480;8.512;2023-01-30T06:56:50;1.50;99.90
44117;DHT22;29781;49.480;8.512;2023-01-30T06:59:15;1.50;99.90
44117;DHT22;29781;49.480;8.512;2023-01-30T07:01:41;1.40;99.90
44117;DHT22;29781;49.480;8.512;2023-01-30T07:04:07;1.40;99.90
44117;DHT22;29781;49.480;8.512;2023-01-30T07:06:32;1.50;99.90
44117;DHT22;29781;49.480;8.512;2023-01-30T07:08:58;1.50;99.90
44117;DHT22;29781;49.480;8.512;2023-01-30T07:11:24;1.40;99.90
44117;DHT22;29781;49.480;8.512;2023-01-30T07:13:49;1.30;99.90
44117;DHT22;29781;49.480;8.512;2023-01-30T07:16:15;1.30;99.90
44117;DHT22;29781;49.480;8.512;2023-01-30T07:18:41;1.30;99.90
44117;DHT22;29781;49.480;8.512;2023-01-30T07:21:06;1.30;99.90
44117;DHT22;29781;49.480;8.512;2023-01-30T07:23:32;1.40;99.90
44117;DHT22;29781;49.480;8.512;2023-01-30T07:25:57;1.30;99.90
44117;DHT22;29781;49.480;8.512;2023-01-30T07:28:23;1.50;99.90
44117;DHT22;29781;49.480;8.512;2023-01-30T07:30:48;1.50;99.90
44117;DHT22;29781;49.480;8.512;2023-01-30T07:33:17;1.50;99.90
44117;DHT22;29781;49.480;8.512;2023-01-30T07:35:42;1.40;99.90
44117;DHT22;29781;49.480;8.512;2023-01-30T07:38:08;1.40;99.90
44117;DHT22;29781;49.480;8.512;2023-01-30T07:40:33;1.40;99.90
44117;DHT22;29781;49.480;8.512;2023-01-30T07:43:03;1.40;99.90
44117;DHT22;29781;49.480;8.512;2023-01-30T07:45:30;1.40;99.90
44117;DHT22;29781;49.480;8.512;2023-01-30T07:47:58;1.40;99.90
44117;DHT22;29781;49.480;8.512;2023-01-30T07:50:24;1.40;99.90
44117;DHT22;29781;49.480;8.512;2023-01-30T07:52:49;1.40;99.90
44117;DHT22;29781;49.480;8.512;2023-01-30T07:55:15;1.30;99.90
44117;DHT22;29781;49.480;8.512;2023-01-30T07:57:40;1.40;99.90
44117;DHT22;29781;49.480;8.512;2023-01-30T08:00:07;1.40;99.90
44117;DHT22;29781;49.480;8.512;2023-01-30T08:02:35;1.40;99.90
44117;DHT22;29781;49.480;8.512;2023-01-30T08:05:01;1.50;99.90
44117;DHT22;29781;49.480;8.512;2023-01-30T08:07:26;1.40;99.90
44117;DHT22;29781;49.480;8.512;2023-01-30T08:09:52;1.50;99.90
44117;DHT22;29781;49.480;8.512;2023-01-30T08:12:17;1.60;99.90
44117;DHT22;29781;49.480;8.512;2023-01-30T08:14:43;1.50;99.90
44117;DHT22;29781;49.480;8.512;2023-01-30T08:17:08;1.50;99.90
44117;DHT22;29781;49.480;8.512;2023-01-30T08:19:34;1.50;99.90
44117;DHT22;29781;49.480;8.512;2023-01-30T08:21:59;1.50;99.90
44117;DHT22;29781;49.480;8.512;2023-01-30T08:24:25;1.50;99.90
44117;DHT22;29781;49.480;8.512;2023-01-30T08:26:50;1.50;99.90
44117;DHT22;29781;49.480;8.512;2023-01-30T08:29:16;1.50;99.90
44117;DHT22;29781;49.480;8.512;2023-01-30T08:31:41;1.60;99.90
44117;DHT22;29781;49.480;8.512;2023-01-30T08:34:07;1.60;99.90
44117;DHT22;29781;49.480;8.512;2023-01-30T08:36:32;1.60;99.90
44117;DHT22;29781;49.480;8.512;2023-01-30T08:38:58;1.70;99.90
44117;DHT22;29781;49.480;8.512;2023-01-30T08:41:23;1.60;99.90
44117;DHT22;29781;49.480;8.512;2023-01-30T08:43:51;1.70;99.90
44117;DHT22;29781;49.480;8.512;2023-01-30T08:46:16;1.60;99.90
44117;DHT22;29781;49.480;8.512;2023-01-30T08:48:42;1.70;99.90
44117;DHT22;29781;49.480;8.512;2023-01-30T08:51:09;1.70;99.90
44117;DHT22;29781;49.480;8.512;2023-01-30T08:53:34;1.80;99.90
44117;DHT22;29781;49.480;8.512;2023-01-30T08:56:00;1.80;99.90
44117;DHT22;29781;49.480;8.512;2023-01-30T08:58:25;1.80;99.90
44117;DHT22;29781;49.480;8.512;2023-01-30T09:00:51;1.80;99.90
44117;DHT22;29781;49.480;8.512;2023-01-30T09:03:16;1.80;99.90
44117;DHT22;29781;49.480;8.512;2023-01-30T09:05:42;1.80;99.90
44117;DHT22;29781;49.480;8.512;2023-01-30T09:08:08;1.80;99.90
44117;DHT22;29781;49.480;8.512;2023-01-30T09:10:33;1.90;99.90
44117;DHT22;29781;49.480;8.512;2023-01-30T09:12:59;1.90;99.90
44117;DHT22;29781;49.480;8.512;2023-01-30T09:15:25;1.90;99.90
44117;DHT22;29781;49.480;8.512;2023-01-30T09:17:50;1.90;99.90
44117;DHT22;29781;49.480;8.512;2023-01-30T09:20:16;1.90;99.90
44117;DHT22;29781;49.480;8.512;2023-01-30T09:22:42;1.90;99.90
44117;DHT22;29781;49.480;8.512;2023-01-30T09:25:08;2.00;99.90
44117;DHT22;29781;49.480;8.512;2023-01-30T09:27:34;2.10;99.90
44117;DHT22;29781;49.480;8.512;2023-01-30T09:29:59;2.10;99.90
44117;DHT22;29781;49.480;8.512;2023-01-30T09:32:25;2.10;99.90
44117;DHT22;29781;49.480;8.512;2023-01-30T09:34:50;2.20;99.90
44117;DHT22;29781;49.480;8.512;2023-01-30T09:37:16;2.20;99.90
44117;DHT22;29781;49.480;8.512;2023-01-30T09:39:41;2.20;99.90
44117;DHT22;29781;49.480;8.512;2023-01-30T09:42:12;2.10;99.90
44117;DHT22;29781;49.480;8.512;2023-01-30T09:45:20;2.20;99.90
44117;DHT22;29781;49.480;8.512;2023-01-30T09:50:07;2.40;99.90
44117;DHT22;29781;49.480;8.512;2023-01-30T09:52:45;3.70;99.90
44117;DHT22;29781;49.480;8.512;2023-01-30T09:55:17;2.60;99.90
44117;DHT22;29781;49.480;8.512;2023-01-30T09:57:44;2.70;99.90
44117;DHT22;29781;49.480;8.512;2023-01-30T10:00:12;2.60;99.90
44117;DHT22;29781;49.480;8.512;2023-01-30T10:02:52;2.70;99.90
44117;DHT22;29781;49.480;8.512;2023-01-30T10:05:23;2.80;99.90
44117;DHT22;29781;49.480;8.512;2023-01-30T10:08:06;2.90;99.90
44117;DHT22;29781;49.480;8.512;2023-01-30T10:10:45;3.00;99.90
44117;DHT22;29781;49.480;8.512;2023-01-30T10:13:24;3.10;99.90
44117;DHT22;29781;49.480;8.512;2023-01-30T10:20:51;3.30;99.90
44117;DHT22;29781;49.480;8.512;2023-01-30T10:26:18;3.50;99.90
44117;DHT22;29781;49.480;8.512;2023-01-30T10:28:53;3.50;99.90
44117;DHT22;29781;49.480;8.512;2023-01-30T10:31:20;3.50;99.90
44117;DHT22;29781;49.480;8.512;2023-01-30T10:34:05;3.50;99.90
44117;DHT22;29781;49.480;8.512;2023-01-30T10:39:00;3.70;99.90
44117;DHT22;29781;49.480;8.512;2023-01-30T10:41:28;3.70;99.90
44117;DHT22;29781;49.480;8.512;2023-01-30T10:44:02;3.70;99.90
44117;DHT22;29781;49.480;8.512;2023-01-30T10:49:18;3.80;99.90
44117;DHT22;29781;49.480;8.512;2023-01-30T10:51:56;3.90;99.90
44117;DHT22;29781;49.480;8.512;2023-01-30T10:54:31;3.80;99.90
44117;DHT22;29781;49.480;8.512;2023-01-30T11:07:09;3.80;99.90
44117;DHT22;29781;49.480;8.512;2023-01-30T11:09:36;3.70;99.90
44117;DHT22;29781;49.480;8.512;2023-01-30T11:12:02;3.80;99.90
44117;DHT22;29781;49.480;8.512;2023-01-30T11:14:28;3.80;99.90
44117;DHT22;29781;49.480;8.512;2023-01-30T11:16:55;4.00;99.90
44117;DHT22;29781;49.480;8.512;2023-01-30T11:19:31;3.90;99.90
44117;DHT22;29781;49.480;8.512;2023-01-30T11:22:02;4.00;99.90
44117;DHT22;29781;49.480;8.512;2023-01-30T11:24:29;4.10;99.90
44117;DHT22;29781;49.480;8.512;2023-01-30T11:26:55;4.10;99.90
44117;DHT22;29781;49.480;8.512;2023-01-30T11:29:23;4.10;99.90
44117;DHT22;29781;49.480;8.512;2023-01-30T11:31:49;4.20;99.90
44117;DHT22;29781;49.480;8.512;2023-01-30T11:34:16;4.10;99.90
44117;DHT22;29781;49.480;8.512;2023-01-30T11:36:45;4.20;99.90
44117;DHT22;29781;49.480;8.512;2023-01-30T11:41:43;4.20;99.90
44117;DHT22;29781;49.480;8.512;2023-01-30T11:44:33;4.30;99.90
44117;DHT22;29781;49.480;8.512;2023-01-30T11:47:00;4.30;99.90
44117;DHT22;29781;49.480;8.512;2023-01-30T11:49:27;4.30;99.90
44117;DHT22;29781;49.480;8.512;2023-01-30T11:51:55;4.20;99.90
44117;DHT22;29781;49.480;8.512;2023-01-30T11:54:30;4.20;99.90
44117;DHT22;29781;49.480;8.512;2023-01-30T11:56:57;4.10;99.90
44117;DHT22;29781;49.480;8.512;2023-01-30T12:00:26;4.10;99.90
44117;DHT22;29781;49.480;8.512;2023-01-30T12:02:24;4.20;99.90
44117;DHT22;29781;49.480;8.512;2023-01-30T12:04:51;4.20;99.90
44117;DHT22;29781;49.480;8.512;2023-01-30T12:07:23;4.20;99.90
44117;DHT22;29781;49.480;8.512;2023-01-30T12:09:49;4.30;99.90
44117;DHT22;29781;49.480;8.512;2023-01-30T12:15:02;4.30;99.90
44117;DHT22;29781;49.480;8.512;2023-01-30T12:18:16;4.50;99.90
44117;DHT22;29781;49.480;8.512;2023-01-30T12:20:22;4.30;99.90
44117;DHT22;29781;49.480;8.512;2023-01-30T12:23:08;4.60;99.90
44117;DHT22;29781;49.480;8.512;2023-01-30T12:25:36;4.60;99.90
44117;DHT22;29781;49.480;8.512;2023-01-30T12:28:11;4.60;99.90
44117;DHT22;29781;49.480;8.512;2023-01-30T12:33:05;4.20;99.90
44117;DHT22;29781;49.480;8.512;2023-01-30T12:35:42;4.10;99.90
44117;DHT22;29781;49.480;8.512;2023-01-30T12:40:49;4.00;99.90
44117;DHT22;29781;49.480;8.512;2023-01-30T12:46:03;4.30;99.90
44117;DHT22;29781;49.480;8.512;2023-01-30T12:48:39;4.30;99.90
44117;DHT22;29781;49.480;8.512;2023-01-30T12:59:03;4.70;99.90
44117;DHT22;29781;49.480;8.512;2023-01-30T13:01:32;4.80;99.90
44117;DHT22;29781;49.480;8.512;2023-01-30T13:07:34;5.00;99.90
44117;DHT22;29781;49.480;8.512;2023-01-30T13:09:51;4.90;99.90
44117;DHT22;29781;49.480;8.512;2023-01-30T13:17:41;5.10;99.90
44117;DHT22;29781;49.480;8.512;2023-01-30T13:22:52;5.10;99.90
44117;DHT22;29781;49.480;8.512;2023-01-30T13:27:55;5.10;99.90
44117;DHT22;29781;49.480;8.512;2023-01-30T13:30:21;5.20;99.90
44117;DHT22;29781;49.480;8.512;2023-01-30T13:32:50;5.30;99.90
44117;DHT22;29781;49.480;8.512;2023-01-30T13:36:03;5.40;99.90
44117;DHT22;29781;49.480;8.512;2023-01-30T13:38:03;5.10;99.90
44117;DHT22;29781;49.480;8.512;2023-01-30T13:40:33;5.20;99.90
44117;DHT22;29781;49.480;8.512;2023-01-30T13:43:45;5.10;99.90
44117;DHT22;29781;49.480;8.512;2023-01-30T13:45:51;4.90;99.90
44117;DHT22;29781;49.480;8.512;2023-01-30T13:48:31;5.00;99.90
44117;DHT22;29781;49.480;8.512;2023-01-30T13:56:42;5.10;99.90
44117;DHT22;29781;49.480;8.512;2023-01-30T13:59:13;5.10;99.90
44117;DHT22;29781;49.480;8.512;2023-01-30T14:10:20;5.10;99.90
44117;DHT22;29781;49.480;8.512;2023-01-30T14:12:27;5.20;99.90
44117;DHT22;29781;49.480;8.512;2023-01-30T14:17:36;5.40;99.90
44117;DHT22;29781;49.480;8.512;2023-01-30T14:28:46;5.30;99.90
44117;DHT22;29781;49.480;8.512;2023-01-30T14:33:31;5.30;99.90
44117;DHT22;29781;49.480;8.512;2023-01-30T14:38:23;5.30;99.90
44117;DHT22;29781;49.480;8.512;2023-01-30T14:45:55;5.20;99.90
44117;DHT22;29781;49.480;8.512;2023-01-30T14:51:47;5.30;99.90
44117;DHT22;29781;49.480;8.512;2023-01-30T14:53:58;5.40;99.90
44117;DHT22;29781;49.480;8.512;2023-01-30T15:05:06;5.40;99.90
44117;DHT22;29781;49.480;8.512;2023-01-30T15:07:17;5.40;99.90
44117;DHT22;29781;49.480;8.512;2023-01-30T15:09:45;5.40;99.90
44117;DHT22;29781;49.480;8.512;2023-01-30T15:21:17;5.40;99.90
44117;DHT22;29781;49.480;8.512;2023-01-30T15:23:28;5.40;99.90
44117;DHT22;29781;49.480;8.512;2023-01-30T15:28:32;5.40;99.90
44117;DHT22;29781;49.480;8.512;2023-01-30T15:31:07;5.40;99.90
44117;DHT22;29781;49.480;8.512;2023-01-30T15:33:41;5.50;99.90
44117;DHT22;29781;49.480;8.512;2023-01-30T15:36:16;5.40;99.90
44117;DHT22;29781;49.480;8.512;2023-01-30T15:38:42;5.40;99.90
44117;DHT22;29781;49.480;8.512;2023-01-30T15:41:08;5.30;99.90
44117;DHT22;29781;49.480;8.512;2023-01-30T15:48:42;5.20;99.90
44117;DHT22;29781;49.480;8.512;2023-01-30T15:51:12;5.20;99.90
44117;DHT22;29781;49.480;8.512;2023-01-30T15:53:41;5.20;99.90
44117;DHT22;29781;49.480;8.512;2023-01-30T15:56:08;5.20;99.90
44117;DHT22;29781;49.480;8.512;2023-01-30T15:58:36;5.30;99.90
44117;DHT22;29781;49.480;8.512;2023-01-30T16:01:02;5.30;99.90
44117;DHT22;29781;49.480;8.512;2023-01-30T16:03:32;5.30;99.90
44117;DHT22;29781;49.480;8.512;2023-01-30T16:06:01;5.20;99.90
44117;DHT22;29781;49.480;8.512;2023-01-30T16:08:30;5.20;99.90
44117;DHT22;29781;49.480;8.512;2023-01-30T16:10:57;5.20;99.90
44117;DHT22;29781;49.480;8.512;2023-01-30T16:13:24;5.10;99.90
44117;DHT22;29781;49.480;8.512;2023-01-30T16:21:03;5.10;99.90
44117;DHT22;29781;49.480;8.512;2023-01-30T16:23:36;5.10;99.90
44117;DHT22;29781;49.480;8.512;2023-01-30T16:26:03;5.00;99.90
44117;DHT22;29781;49.480;8.512;2023-01-30T16:28:30;4.90;99.90
44117;DHT22;29781;49.480;8.512;2023-01-30T16:31:02;4.90;99.90
44117;DHT22;29781;49.480;8.512;2023-01-30T16:33:29;4.80;99.90
44117;DHT22;29781;49.480;8.512;2023-01-30T16:36:00;4.80;99.90
44117;DHT22;29781;49.480;8.512;2023-01-30T16:38:34;4.80;99.90
44117;DHT22;29781;49.480;8.512;2023-01-30T16:41:00;4.70;99.90
44117;DHT22;29781;49.480;8.512;2023-01-30T16:43:25;4.60;99.90
44117;DHT22;29781;49.480;8.512;2023-01-30T16:50:44;4.50;99.90
44117;DHT22;29781;49.480;8.512;2023-01-30T16:53:14;4.50;99.90
44117;DHT22;29781;49.480;8.512;2023-01-30T16:55:41;4.50;99.90
44117;DHT22;29781;49.480;8.512;2023-01-30T16:58:18;4.40;99.90
44117;DHT22;29781;49.480;8.512;2023-01-30T17:00:44;4.50;99.90
44117;DHT22;29781;49.480;8.512;2023-01-30T17:03:21;4.30;99.90
44117;DHT22;29781;49.480;8.512;2023-01-30T17:05:48;4.30;99.90
44117;DHT22;29781;49.480;8.512;2023-01-30T17:11:09;4.40;99.90
44117;DHT22;29781;49.480;8.512;2023-01-30T17:13:36;4.40;99.90
44117;DHT22;29781;49.480;8.512;2023-01-30T17:18:48;4.40;99.90
44117;DHT22;29781;49.480;8.512;2023-01-30T17:21:14;4.40;99.90
44117;DHT22;29781;49.480;8.512;2023-01-30T17:23:44;4.40;99.90
44117;DHT22;29781;49.480;8.512;2023-01-30T17:26:10;4.30;99.90
44117;DHT22;29781;49.480;8.512;2023-01-30T17:28:36;4.30;99.90
44117;DHT22;29781;49.480;8.512;2023-01-30T17:31:03;4.30;99.90
44117;DHT22;29781;49.480;8.512;2023-01-30T17:33:29;4.30;99.90
44117;DHT22;29781;49.480;8.512;2023-01-30T17:35:54;4.30;99.90
44117;DHT22;29781;49.480;8.512;2023-01-30T17:38:20;4.20;99.90
44117;DHT22;29781;49.480;8.512;2023-01-30T17:40:46;4.30;99.90
44117;DHT22;29781;49.480;8.512;2023-01-30T17:43:11;4.40;99.90
44117;DHT22;29781;49.480;8.512;2023-01-30T17:45:37;4.20;99.90
44117;DHT22;29781;49.480;8.512;2023-01-30T17:48:02;4.20;99.90
44117;DHT22;29781;49.480;8.512;2023-01-30T17:50:28;4.10;99.90
44117;DHT22;29781;49.480;8.512;2023-01-30T17:52:54;4.10;99.90
44117;DHT22;29781;49.480;8.512;2023-01-30T17:55:19;4.20;99.90
44117;DHT22;29781;49.480;8.512;2023-01-30T17:57:45;4.20;99.90
44117;DHT22;29781;49.480;8.512;2023-01-30T18:00:18;4.20;99.90
44117;DHT22;29781;49.480;8.512;2023-01-30T18:02:44;4.20;99.90
44117;DHT22;29781;49.480;8.512;2023-01-30T18:05:09;4.20;99.90
44117;DHT22;29781;49.480;8.512;2023-01-30T18:07:35;4.30;99.90
44117;DHT22;29781;49.480;8.512;2023-01-30T18:10:01;4.40;99.90
44117;DHT22;29781;49.480;8.512;2023-01-30T18:12:26;4.30;99.90
44117;DHT22;29781;49.480;8.512;2023-01-30T18:14:52;4.40;99.90
44117;DHT22;29781;49.480;8.512;2023-01-30T18:17:17;4.30;99.90
44117;DHT22;29781;49.480;8.512;2023-01-30T18:19:43;4.30;99.90
44117;DHT22;29781;49.480;8.512;2023-01-30T18:22:08;4.30;99.90
44117;DHT22;29781;49.480;8.512;2023-01-30T18:24:34;4.40;99.90
44117;DHT22;29781;49.480;8.512;2023-01-30T18:27:00;4.40;99.90
44117;DHT22;29781;49.480;8.512;2023-01-30T18:29:25;4.50;99.90
44117;DHT22;29781;49.480;8.512;2023-01-30T18:31:51;4.50;99.90